Time;durP1;ratioP1;P1;durP2;ratioP2;P2;SDS_P1;SDS_P2;PMS_P1;PMS_P2;Temp;Humidity;BMP_temperature;BMP_pressure;BME280_temperature;BME280_humidity;BME280_pressure;Samples;Min_cycle;Max_cycle;Signal;HPM_P1;HPM_P2
2023/04/13 00:01:02;;;;;;;0.10;0.10;;;6.10;99.90;;;;;;4982241;28;20026;-76
2023/04/13 00:03:32;;;;;;;0.10;0.10;;;6.10;99.90;;;;;;4978335;28;20042;-75
2023/04/13 00:05:57;;;;;;;0.10;0.10;;;6.10;99.90;;;;;;4980525;28;20034;-75
2023/04/13 00:08:24;;;;;;;0.10;0.10;;;6.00;99.90;;;;;;4971888;28;20031;-75
2023/04/13 00:10:49;;;;;;;0.10;0.10;;;6.10;99.90;;;;;;4982515;28;20047;-77
2023/04/13 00:13:17;;;;;;;0.10;0.10;;;6.00;99.90;;;;;;4980696;28;20349;-74
2023/04/13 00:15:43;;;;;;;0.10;0.10;;;6.00;99.90;;;;;;4969378;28;20399;-73
2023/04/13 00:18:10;;;;;;;0.10;0.10;;;6.00;99.90;;;;;;4974295;28;20047;-75
2023/04/13 00:20:37;;;;;;;0.10;0.10;;;6.00;99.90;;;;;;4981945;28;20035;-73
2023/04/13 00:23:03;;;;;;;0.10;0.10;;;5.00;99.90;;;;;;4964957;28;20027;-74
2023/04/13 00:25:29;;;;;;;0.10;0.10;;;6.00;99.90;;;;;;4974993;28;20014;-76
2023/04/13 00:27:55;;;;;;;0.10;0.10;;;6.00;99.90;;;;;;4981775;28;20135;-76
2023/04/13 00:30:21;;;;;;;0.10;0.10;;;5.90;99.90;;;;;;4962908;28;20081;-75
2023/04/13 00:32:47;;;;;;;0.10;0.10;;;5.90;99.90;;;;;;4982867;28;20033;-75
2023/04/13 00:35:18;;;;;;;0.10;0.10;;;5.90;99.90;;;;;;4984700;28;20023;-76
2023/04/13 00:37:46;;;;;;;0.10;0.10;;;5.90;99.90;;;;;;4966496;28;20220;-74
2023/04/13 00:40:14;;;;;;;0.10;0.10;;;5.90;99.90;;;;;;4983299;28;20050;-75
2023/04/13 00:42:43;;;;;;;0.10;0.10;;;5.90;99.90;;;;;;4985542;28;20098;-75
2023/04/13 00:45:10;;;;;;;0.10;0.10;;;5.80;99.90;;;;;;4983822;28;20026;-74
2023/04/13 00:47:36;;;;;;;0.10;0.10;;;5.80;99.90;;;;;;4983878;28;20031;-78
2023/04/13 00:50:04;;;;;;;1.75;1.65;;;5.70;99.90;;;;;;4984713;28;20053;-75
2023/04/13 00:52:33;;;;;;;0.10;0.10;;;5.70;99.90;;;;;;4977787;28;20427;-74
2023/04/13 00:55:01;;;;;;;0.10;0.10;;;5.70;99.90;;;;;;4970940;28;20031;-78
2023/04/13 00:57:27;;;;;;;0.10;0.10;;;5.70;99.90;;;;;;4972879;28;20351;-82
2023/04/13 00:59:54;;;;;;;0.20;0.20;;;5.70;99.90;;;;;;4972361;28;20039;-77
2023/04/13 01:02:25;;;;;;;0.15;0.15;;;5.70;99.90;;;;;;4971041;28;20030;-74
2023/04/13 01:04:53;;;;;;;0.10;0.10;;;5.60;99.90;;;;;;4977374;28;20086;-74
2023/04/13 01:07:36;;;;;;;0.10;0.10;;;5.60;99.90;;;;;;4976439;28;20030;-74
2023/04/13 01:10:26;;;;;;;0.10;0.10;;;5.60;99.90;;;;;;4986092;28;20090;-75
2023/04/13 01:13:06;;;;;;;0.10;0.10;;;5.60;99.90;;;;;;4986494;28;20019;-76
2023/04/13 01:15:40;;;;;;;0.10;0.10;;;5.60;99.90;;;;;;4988009;28;20043;-77
2023/04/13 01:18:08;;;;;;;0.30;0.30;;;5.60;99.90;;;;;;4986014;28;20485;-77
2023/04/13 01:20:40;;;;;;;0.20;0.20;;;5.60;99.90;;;;;;4987273;28;20063;-76
2023/04/13 01:23:12;;;;;;;0.10;0.10;;;5.50;99.90;;;;;;4986825;28;20035;-78
2023/04/13 01:25:49;;;;;;;0.10;0.10;;;5.60;99.90;;;;;;4985318;28;20038;-73
2023/04/13 01:28:17;;;;;;;0.80;0.80;;;5.60;99.90;;;;;;4989213;28;20057;-74
2023/04/13 01:30:48;;;;;;;0.10;0.10;;;5.60;99.90;;;;;;4987521;28;20037;-75
2023/04/13 01:33:15;;;;;;;0.10;0.10;;;5.50;99.90;;;;;;4979891;28;20031;-75
2023/04/13 01:35:42;;;;;;;0.10;0.10;;;5.50;99.90;;;;;;4981023;28;20023;-73
2023/04/13 01:38:08;;;;;;;2.95;2.85;;;5.50;99.90;;;;;;4978788;28;20035;-74
2023/04/13 01:40:39;;;;;;;0.10;0.10;;;5.50;99.90;;;;;;4977456;28;20314;-75
2023/04/13 01:43:06;;;;;;;0.20;0.20;;;5.40;99.90;;;;;;4977201;28;20019;-74
2023/04/13 01:46:04;;;;;;;0.10;0.10;;;5.50;99.90;;;;;;4978926;28;20042;-75
2023/04/13 01:48:47;;;;;;;0.10;0.10;;;5.40;99.90;;;;;;4977740;28;20034;-74
2023/04/13 01:51:18;;;;;;;0.10;0.10;;;5.40;99.90;;;;;;4972797;28;20081;-76
2023/04/13 01:53:52;;;;;;;0.08;0.08;;;5.30;99.90;;;;;;4982717;28;20054;-77
2023/04/13 01:56:18;;;;;;;0.10;0.10;;;5.40;99.90;;;;;;4983551;28;20069;-76
2023/04/13 01:58:48;;;;;;;0.10;0.10;;;5.30;99.90;;;;;;4986592;28;20115;-78
2023/04/13 02:01:14;;;;;;;0.10;0.10;;;5.50;99.90;;;;;;4979098;28;20046;-74
2023/04/13 02:03:42;;;;;;;0.10;0.10;;;5.30;99.90;;;;;;4959958;28;20042;-75
2023/04/13 02:06:09;;;;;;;0.10;0.10;;;5.30;99.90;;;;;;4976887;28;20031;-75
2023/04/13 02:08:39;;;;;;;0.10;0.10;;;5.30;99.90;;;;;;4972735;28;20027;-75
2023/04/13 02:11:06;;;;;;;0.20;0.20;;;5.30;99.90;;;;;;4977877;28;20035;-74
2023/04/13 02:13:33;;;;;;;0.10;0.10;;;5.30;99.90;;;;;;4958650;28;20026;-74
2023/04/13 02:15:59;;;;;;;0.10;0.10;;;5.30;99.90;;;;;;4964537;28;20039;-74
2023/04/13 02:18:25;;;;;;;0.10;0.10;;;5.30;99.90;;;;;;4979038;28;20023;-75
2023/04/13 02:21:06;;;;;;;0.20;0.20;;;5.30;99.90;;;;;;4972399;28;20041;-74
2023/04/13 02:23:33;;;;;;;0.20;0.20;;;5.30;99.90;;;;;;4980861;28;20022;-74
2023/04/13 02:26:01;;;;;;;0.20;0.20;;;5.30;99.90;;;;;;4972063;28;20027;-74
2023/04/13 02:28:28;;;;;;;0.20;0.20;;;5.30;99.90;;;;;;4982063;28;20085;-75
2023/04/13 02:30:54;;;;;;;0.20;0.20;;;5.30;99.90;;;;;;4981412;28;20501;-73
2023/04/13 02:33:21;;;;;;;0.20;0.20;;;5.20;99.90;;;;;;4982433;28;20019;-76
2023/04/13 02:35:48;;;;;;;0.20;0.20;;;5.20;99.90;;;;;;4982261;28;20054;-75
2023/04/13 02:38:15;;;;;;;0.10;0.10;;;5.20;99.90;;;;;;4972743;28;20054;-76
2023/04/13 02:40:42;;;;;;;0.20;0.20;;;5.30;99.90;;;;;;4979003;28;20030;-73
2023/04/13 02:43:11;;;;;;;0.10;0.10;;;5.30;99.90;;;;;;4976743;28;20097;-74
2023/04/13 02:45:40;;;;;;;0.15;0.15;;;5.20;99.90;;;;;;4955706;28;20126;-75
2023/04/13 02:48:12;;;;;;;0.20;0.20;;;5.20;99.90;;;;;;4977368;28;20019;-73
2023/04/13 02:50:40;;;;;;;0.10;0.10;;;5.20;99.90;;;;;;4981135;28;20109;-74
2023/04/13 02:53:06;;;;;;;0.13;0.13;;;5.20;99.90;;;;;;4977989;28;20030;-74
2023/04/13 02:55:35;;;;;;;0.20;0.20;;;5.10;99.90;;;;;;4958257;28;20039;-75
2023/04/13 02:58:03;;;;;;;0.20;0.20;;;5.10;99.90;;;;;;4981090;28;20027;-73
2023/04/13 03:00:29;;;;;;;0.10;0.10;;;5.10;99.90;;;;;;4970898;28;20038;-76
2023/04/13 03:02:56;;;;;;;0.10;0.10;;;5.10;99.90;;;;;;4977797;28;20118;-74
2023/04/13 03:05:25;;;;;;;0.10;0.10;;;5.20;99.90;;;;;;4964437;28;20059;-72
2023/04/13 03:07:51;;;;;;;0.20;0.20;;;5.10;99.90;;;;;;4977448;28;20110;-75
2023/04/13 03:10:17;;;;;;;0.10;0.10;;;5.10;99.90;;;;;;4978378;28;20444;-74
2023/04/13 03:12:43;;;;;;;0.10;0.10;;;5.10;99.90;;;;;;4972282;28;20380;-74
2023/04/13 03:15:10;;;;;;;0.10;0.10;;;5.10;99.90;;;;;;4982410;28;20031;-74
2023/04/13 03:17:40;;;;;;;0.10;0.10;;;5.00;99.90;;;;;;4978747;28;20043;-74
2023/04/13 03:20:14;;;;;;;0.10;0.10;;;4.90;99.90;;;;;;4975935;28;20051;-73
2023/04/13 03:22:40;;;;;;;0.10;0.10;;;4.90;99.90;;;;;;4971207;28;20224;-80
2023/04/13 03:25:07;;;;;;;0.20;0.20;;;4.90;99.90;;;;;;4969240;28;20112;-74
2023/04/13 03:27:33;;;;;;;0.10;0.10;;;4.90;99.90;;;;;;4967294;28;20190;-77
2023/04/13 03:29:59;;;;;;;0.15;0.15;;;5.00;99.90;;;;;;4971102;28;20030;-75
2023/04/13 03:32:26;;;;;;;0.30;0.30;;;5.00;99.90;;;;;;4980300;28;20035;-75
2023/04/13 03:34:51;;;;;;;0.30;0.30;;;5.00;99.90;;;;;;4980770;28;20514;-74
2023/04/13 03:37:17;;;;;;;0.15;0.15;;;5.00;99.90;;;;;;4986176;28;20146;-73
2023/04/13 03:39:43;;;;;;;0.20;0.20;;;5.00;99.90;;;;;;4974673;28;20367;-73
2023/04/13 03:42:10;;;;;;;0.17;0.17;;;5.00;99.90;;;;;;4986869;28;20040;-74
2023/04/13 03:44:36;;;;;;;0.10;0.10;;;5.00;99.90;;;;;;4962138;28;20097;-78
2023/04/13 03:47:02;;;;;;;0.47;0.43;;;5.00;99.90;;;;;;4969295;28;20038;-75
2023/04/13 03:49:29;;;;;;;0.10;0.10;;;5.00;99.90;;;;;;4968207;28;20444;-77
2023/04/13 03:51:56;;;;;;;0.10;0.10;;;5.00;99.90;;;;;;4974987;28;20033;-77
2023/04/13 03:54:21;;;;;;;0.10;0.10;;;5.00;99.90;;;;;;4973452;28;20023;-83
2023/04/13 03:56:47;;;;;;;0.10;0.10;;;4.90;99.90;;;;;;4971050;28;20027;-76
2023/04/13 03:59:13;;;;;;;0.17;0.17;;;5.00;99.90;;;;;;4970490;28;20414;-78
2023/04/13 04:01:39;;;;;;;0.10;0.10;;;4.90;99.90;;;;;;4969845;28;20038;-80
2023/04/13 04:04:05;;;;;;;0.10;0.10;;;4.90;99.90;;;;;;4978437;28;20041;-73
2023/04/13 04:06:31;;;;;;;0.20;0.20;;;4.90;99.90;;;;;;4979854;28;20027;-74
2023/04/13 04:08:56;;;;;;;0.10;0.10;;;4.70;99.90;;;;;;4980216;28;20428;-74
2023/04/13 04:11:22;;;;;;;0.10;0.10;;;4.70;99.90;;;;;;4961787;28;20536;-74
2023/04/13 04:13:48;;;;;;;0.10;0.10;;;4.60;99.90;;;;;;4982273;28;20026;-75
2023/04/13 04:16:14;;;;;;;0.10;0.10;;;4.60;99.90;;;;;;4986637;28;20082;-75
2023/04/13 04:18:39;;;;;;;3.78;3.55;;;4.60;99.90;;;;;;4983693;28;20050;-75
2023/04/13 04:21:06;;;;;;;0.20;0.20;;;4.60;99.90;;;;;;4982335;28;20049;-76
2023/04/13 04:23:33;;;;;;;0.17;0.17;;;4.70;99.90;;;;;;4981896;28;20015;-74
2023/04/13 04:26:01;;;;;;;0.13;0.13;;;4.70;99.90;;;;;;4960999;28;20209;-73
2023/04/13 04:28:29;;;;;;;0.17;0.17;;;4.70;99.90;;;;;;4978465;28;20027;-75
2023/04/13 04:30:59;;;;;;;0.10;0.10;;;4.70;99.90;;;;;;4980175;28;20033;-75
2023/04/13 04:33:26;;;;;;;0.10;0.10;;;4.70;99.90;;;;;;4976291;28;20030;-75
2023/04/13 04:35:52;;;;;;;0.10;0.10;;;4.80;99.90;;;;;;4981870;28;20049;-75
2023/04/13 04:38:21;;;;;;;0.10;0.10;;;4.80;99.90;;;;;;4981688;28;20418;-73
2023/04/13 04:40:47;;;;;;;0.13;0.13;;;4.80;99.90;;;;;;4983869;28;20034;-74
2023/04/13 04:43:13;;;;;;;0.13;0.13;;;4.80;99.90;;;;;;4963523;28;20035;-74
2023/04/13 04:45:42;;;;;;;0.10;0.10;;;4.80;99.90;;;;;;4982553;28;20019;-76
2023/04/13 04:48:10;;;;;;;1.23;0.93;;;4.80;99.90;;;;;;4964623;28;20046;-74
2023/04/13 04:50:36;;;;;;;0.10;0.10;;;4.90;99.90;;;;;;4982889;28;20033;-74
2023/04/13 04:53:03;;;;;;;0.10;0.10;;;5.00;99.90;;;;;;4971512;28;20079;-75
2023/04/13 04:55:29;;;;;;;0.10;0.10;;;5.00;99.90;;;;;;4985898;28;20018;-74
2023/04/13 04:57:55;;;;;;;0.10;0.10;;;5.10;99.90;;;;;;4987909;28;20030;-73
2023/04/13 05:00:21;;;;;;;0.10;0.10;;;5.10;99.90;;;;;;4969430;28;20039;-74
2023/04/13 05:02:49;;;;;;;0.20;0.20;;;5.20;99.90;;;;;;4970468;28;20110;-74
2023/04/13 05:05:15;;;;;;;0.10;0.10;;;5.30;99.90;;;;;;4991320;28;20023;-73
2023/04/13 05:07:41;;;;;;;0.20;0.20;;;5.30;99.90;;;;;;4989219;28;20034;-74
2023/04/13 05:10:08;;;;;;;0.10;0.10;;;5.40;99.90;;;;;;4961140;28;20027;-73
2023/04/13 05:12:34;;;;;;;0.20;0.20;;;5.40;99.90;;;;;;4966652;28;20340;-74
2023/04/13 05:15:00;;;;;;;0.10;0.10;;;5.60;99.90;;;;;;4986178;28;20055;-74
2023/04/13 05:17:26;;;;;;;0.20;0.20;;;5.60;99.90;;;;;;4987108;28;20042;-74
2023/04/13 05:19:52;;;;;;;1.80;1.73;;;5.70;99.90;;;;;;4984684;28;20046;-76
2023/04/13 05:22:17;;;;;;;0.10;0.10;;;5.80;99.90;;;;;;4965966;28;20030;-76
2023/04/13 05:24:43;;;;;;;0.30;0.30;;;5.70;99.90;;;;;;4979528;28;20518;-74
2023/04/13 05:27:10;;;;;;;0.13;0.13;;;5.70;99.90;;;;;;4976007;28;20252;-74
2023/04/13 05:29:36;;;;;;;0.10;0.10;;;5.80;99.90;;;;;;4979857;28;20037;-75
2023/04/13 05:32:02;;;;;;;0.10;0.10;;;5.80;99.90;;;;;;4975894;28;20050;-76
2023/04/13 05:34:28;;;;;;;0.10;0.10;;;6.00;99.90;;;;;;4979328;28;20038;-76
2023/04/13 05:36:56;;;;;;;0.10;0.10;;;6.10;99.90;;;;;;4978475;28;20061;-75
2023/04/13 05:39:23;;;;;;;0.10;0.10;;;6.20;99.90;;;;;;4960306;28;20069;-74
2023/04/13 05:41:49;;;;;;;0.10;0.10;;;6.30;99.90;;;;;;4976629;28;20401;-75
2023/04/13 05:44:15;;;;;;;0.10;0.10;;;6.40;99.90;;;;;;4978416;28;20042;-75
2023/04/13 05:46:41;;;;;;;0.10;0.10;;;6.50;99.90;;;;;;4979321;28;20027;-74
2023/04/13 05:49:07;;;;;;;0.10;0.10;;;6.70;99.90;;;;;;4971483;28;20030;-74
2023/04/13 05:51:35;;;;;;;0.10;0.10;;;6.80;99.90;;;;;;4967632;28;20074;-76
2023/04/13 05:54:01;;;;;;;0.10;0.10;;;6.90;99.90;;;;;;4950202;28;20320;-73
2023/04/13 05:56:28;;;;;;;0.10;0.10;;;7.00;99.90;;;;;;4966619;28;20088;-74
2023/04/13 05:58:55;;;;;;;0.00;0.00;;;7.20;99.90;;;;;;4968872;28;20019;-73
2023/04/13 06:01:22;;;;;;;0.00;0.00;;;7.40;99.90;;;;;;4972545;28;20214;-76
2023/04/13 06:03:48;;;;;;;0.50;0.50;;;7.50;99.90;;;;;;4969971;28;20023;-74
2023/04/13 06:06:16;;;;;;;0.00;0.00;;;7.70;99.90;;;;;;4976608;28;20035;-74
2023/04/13 06:08:42;;;;;;;0.05;0.05;;;7.80;99.90;;;;;;4978908;28;20019;-74
2023/04/13 06:11:11;;;;;;;0.10;0.10;;;8.00;99.90;;;;;;4972659;28;20344;-77
2023/04/13 06:13:39;;;;;;;0.00;0.00;;;8.10;99.90;;;;;;4955513;28;20034;-74
2023/04/13 06:16:06;;;;;;;0.00;0.00;;;8.20;99.90;;;;;;4980068;28;20031;-74
2023/04/13 06:18:33;;;;;;;0.00;0.00;;;10.20;99.90;;;;;;4976730;28;20031;-74
2023/04/13 06:20:59;;;;;;;0.10;0.10;;;8.60;99.90;;;;;;4978016;28;20038;-74
2023/04/13 06:23:25;;;;;;;0.05;0.05;;;8.80;99.90;;;;;;4960903;28;20759;-74
2023/04/13 06:25:51;;;;;;;0.00;0.00;;;9.00;99.90;;;;;;4977535;28;20039;-74
2023/04/13 06:28:17;;;;;;;0.10;0.10;;;9.30;99.90;;;;;;4969058;28;20283;-74
2023/04/13 06:30:44;;;;;;;0.00;0.00;;;9.40;99.90;;;;;;4975210;28;20034;-75
2023/04/13 06:33:10;;;;;;;0.00;0.00;;;9.60;99.90;;;;;;4958766;28;20089;-74
2023/04/13 06:35:36;;;;;;;1.63;1.58;;;9.80;99.90;;;;;;4977681;28;20019;-73
2023/04/13 06:38:02;;;;;;;0.10;0.10;;;9.80;99.90;;;;;;4978304;28;20226;-76
2023/04/13 06:40:30;;;;;;;0.22;0.22;;;9.90;99.90;;;;;;4976317;28;20297;-74
2023/04/13 06:42:58;;;;;;;0.00;0.00;;;9.80;99.90;;;;;;4978736;28;20027;-76
2023/04/13 06:45:24;;;;;;;0.10;0.10;;;9.80;99.90;;;;;;4977287;28;20414;-80
2023/04/13 06:47:51;;;;;;;0.10;0.10;;;10.00;99.90;;;;;;4953209;28;20038;-74
2023/04/13 06:50:21;;;;;;;0.10;0.10;;;10.20;99.90;;;;;;4967763;28;20473;-76
2023/04/13 06:52:48;;;;;;;5.18;4.93;;;10.10;99.90;;;;;;4951574;28;20026;-76
2023/04/13 06:55:16;;;;;;;9.48;8.75;;;10.30;99.90;;;;;;4973596;28;20034;-75
2023/04/13 06:57:42;;;;;;;0.00;0.00;;;10.40;99.90;;;;;;4973891;28;20220;-74
2023/04/13 07:00:09;;;;;;;0.10;0.10;;;10.60;99.90;;;;;;4976162;28;20082;-74
2023/04/13 07:02:35;;;;;;;0.10;0.10;;;10.80;99.90;;;;;;4971780;28;20034;-77
2023/04/13 07:05:05;;;;;;;0.00;0.00;;;11.00;99.90;;;;;;4968746;28;20033;-77
2023/04/13 07:07:32;;;;;;;0.10;0.10;;;11.20;99.90;;;;;;4967430;28;20027;-75
2023/04/13 07:09:58;;;;;;;0.75;0.75;;;11.40;99.90;;;;;;4973403;28;20046;-78
2023/04/13 07:12:23;;;;;;;0.10;0.10;;;11.70;99.90;;;;;;4967063;28;20027;-79
2023/04/13 07:14:49;;;;;;;0.10;0.10;;;11.90;99.90;;;;;;4965022;28;20453;-78
2023/04/13 07:17:16;;;;;;;0.10;0.10;;;12.20;99.90;;;;;;4960449;28;20027;-76
2023/04/13 07:19:46;;;;;;;0.10;0.10;;;12.50;99.90;;;;;;4960350;28;20513;-74
2023/04/13 07:22:12;;;;;;;0.20;0.20;;;12.60;99.60;;;;;;4959236;28;20342;-78
2023/04/13 07:24:38;;;;;;;0.10;0.10;;;12.60;99.60;;;;;;4958245;28;20106;-77
2023/04/13 07:27:04;;;;;;;0.20;0.20;;;12.80;99.40;;;;;;4959398;28;20134;-75
2023/04/13 07:29:30;;;;;;;0.10;0.10;;;13.10;98.10;;;;;;4959372;28;20045;-77
2023/04/13 07:32:01;;;;;;;0.10;0.10;;;13.40;97.30;;;;;;4941571;28;20517;-71
2023/04/13 07:34:27;;;;;;;0.85;0.85;;;13.70;96.50;;;;;;4959136;28;20027;-78
2023/04/13 07:36:53;;;;;;;0.38;0.38;;;13.90;95.50;;;;;;4959098;28;20221;-78
2023/04/13 07:39:19;;;;;;;0.60;0.60;;;14.10;94.00;;;;;;4959152;28;20413;-79
2023/04/13 07:41:45;;;;;;;0.10;0.10;;;14.10;93.40;;;;;;4944503;28;20039;-72
2023/04/13 07:44:13;;;;;;;0.10;0.10;;;14.20;93.30;;;;;;4939955;28;20061;-83
2023/04/13 07:46:39;;;;;;;0.10;0.10;;;14.40;93.00;;;;;;4940116;28;20082;-79
2023/04/13 07:49:05;;;;;;;0.10;0.10;;;14.70;91.20;;;;;;4940389;28;20027;-76
2023/04/13 07:51:33;;;;;;;0.17;0.17;;;14.70;91.00;;;;;;4940185;29;20089;-72
2023/04/13 07:53:59;;;;;;;0.20;0.20;;;15.00;91.70;;;;;;4940245;28;20662;-75
2023/04/13 07:56:25;;;;;;;0.10;0.10;;;15.20;89.50;;;;;;4940350;28;20110;-76
2023/04/13 07:58:51;;;;;;;0.90;0.80;;;15.40;86.60;;;;;;4939705;28;20094;-72
2023/04/13 08:01:17;;;;;;;0.10;0.10;;;15.60;82.90;;;;;;4939731;28;20325;-78
2023/04/13 08:03:43;;;;;;;0.20;0.20;;;15.60;82.80;;;;;;4940485;29;20039;-77
2023/04/13 08:06:10;;;;;;;3.13;2.92;;;15.50;85.00;;;;;;4940138;29;20028;-77
2023/04/13 08:08:35;;;;;;;4.10;2.17;;;15.70;83.70;;;;;;4940132;28;20709;-78
2023/04/13 08:11:01;;;;;;;0.20;0.20;;;15.70;83.50;;;;;;4940332;28;20027;-77
2023/04/13 08:13:28;;;;;;;0.17;0.17;;;15.80;83.60;;;;;;4939762;29;20058;-76
2023/04/13 08:15:59;;;;;;;0.10;0.10;;;15.80;82.10;;;;;;4940184;28;20031;-76
2023/04/13 08:18:26;;;;;;;0.25;0.25;;;15.80;81.10;;;;;;4940385;28;20584;-78
2023/04/13 08:20:54;;;;;;;0.10;0.10;;;16.00;80.90;;;;;;4978562;28;20043;-74
2023/04/13 08:23:21;;;;;;;0.10;0.10;;;16.20;80.90;;;;;;4978246;28;20032;-74
2023/04/13 08:25:47;;;;;;;0.10;0.10;;;16.50;77.60;;;;;;4960535;28;20326;-77
2023/04/13 08:28:13;;;;;;;1.20;1.17;;;16.70;76.50;;;;;;4961473;28;20114;-75
2023/04/13 08:30:39;;;;;;;0.22;0.22;;;16.90;75.90;;;;;;4978208;28;20030;-75
2023/04/13 08:33:05;;;;;;;0.10;0.10;;;17.10;76.10;;;;;;4977980;28;20069;-74
2023/04/13 08:35:31;;;;;;;0.50;0.50;;;17.20;75.80;;;;;;4960300;28;20073;-78
2023/04/13 08:37:57;;;;;;;0.10;0.10;;;17.20;74.40;;;;;;4978269;28;20088;-73
2023/04/13 08:40:23;;;;;;;0.73;0.73;;;17.20;74.20;;;;;;4977341;28;20034;-76
2023/04/13 08:42:49;;;;;;;0.35;0.35;;;17.30;73.90;;;;;;4977466;28;20022;-72
2023/04/13 08:45:15;;;;;;;0.10;0.10;;;17.30;73.20;;;;;;4977897;28;20033;-76
2023/04/13 08:47:41;;;;;;;0.10;0.10;;;17.30;72.40;;;;;;4977880;28;20053;-74
2023/04/13 08:50:07;;;;;;;0.10;0.10;;;17.20;72.90;;;;;;4977561;28;20026;-78
2023/04/13 08:52:35;;;;;;;0.10;0.10;;;17.30;72.80;;;;;;4978049;28;20105;-72
2023/04/13 08:55:03;;;;;;;0.10;0.10;;;17.40;72.60;;;;;;4977486;28;20026;-72
2023/04/13 08:57:30;;;;;;;0.10;0.10;;;17.60;71.70;;;;;;4977332;28;20029;-83
2023/04/13 08:59:57;;;;;;;1.13;0.55;;;17.70;71.30;;;;;;4960321;28;20029;-79
2023/04/13 09:02:27;;;;;;;0.10;0.10;;;17.70;71.30;;;;;;4978069;28;20723;-80
2023/04/13 09:04:54;;;;;;;0.10;0.10;;;17.60;71.00;;;;;;4977878;28;20068;-80
2023/04/13 09:07:25;;;;;;;1.83;1.73;;;17.60;71.60;;;;;;4977723;28;20027;-73
2023/04/13 09:09:55;;;;;;;1.08;1.02;;;17.40;71.70;;;;;;4977733;28;20251;-77
2023/04/13 09:12:20;;;;;;;0.10;0.10;;;17.50;71.70;;;;;;4977366;28;20026;-79
2023/04/13 09:14:47;;;;;;;0.15;0.15;;;17.60;71.90;;;;;;4977220;28;20041;-73
2023/04/13 09:17:27;;;;;;;0.63;0.63;;;17.40;71.70;;;;;;4977344;28;20027;-72
2023/04/13 09:19:55;;;;;;;0.10;0.10;;;17.60;71.00;;;;;;4977275;28;20066;-77
2023/04/13 09:22:21;;;;;;;1.17;1.17;;;17.70;71.10;;;;;;4977398;28;20662;-75
2023/04/13 09:24:47;;;;;;;0.57;0.57;;;17.70;71.50;;;;;;4977454;28;20216;-78
2023/04/13 09:27:20;;;;;;;0.10;0.10;;;17.90;71.60;;;;;;4977580;28;20022;-80
2023/04/13 09:29:51;;;;;;;0.10;0.10;;;18.00;71.00;;;;;;4977574;28;20022;-81
2023/04/13 09:32:24;;;;;;;0.10;0.10;;;18.10;70.80;;;;;;4977545;28;20658;-78
2023/04/13 09:35:04;;;;;;;0.63;0.63;;;18.10;70.50;;;;;;4977392;28;20031;-72
2023/04/13 09:37:40;;;;;;;0.10;0.10;;;18.20;70.60;;;;;;4977347;28;20232;-72
2023/04/13 09:40:17;;;;;;;0.13;0.13;;;18.40;70.60;;;;;;4977624;28;20624;-77
2023/04/13 09:42:56;;;;;;;0.10;0.10;;;18.50;70.30;;;;;;4977575;28;20116;-81
2023/04/13 09:45:22;;;;;;;0.10;0.10;;;18.70;70.30;;;;;;4977058;28;20019;-75
2023/04/13 09:47:48;;;;;;;0.10;0.10;;;18.90;70.10;;;;;;4962675;28;20021;-73
2023/04/13 09:50:22;;;;;;;0.20;0.20;;;19.00;71.00;;;;;;4980708;28;20018;-73
2023/04/13 09:53:02;;;;;;;0.10;0.10;;;19.20;70.30;;;;;;4980929;28;20046;-78
2023/04/13 09:55:28;;;;;;;0.20;0.20;;;19.00;69.40;;;;;;4980549;28;20030;-77
2023/04/13 09:57:54;;;;;;;0.10;0.10;;;18.90;69.70;;;;;;4980854;28;20065;-77
2023/04/13 10:00:21;;;;;;;0.57;0.57;;;19.00;71.50;;;;;;4981282;28;20047;-83
2023/04/13 10:02:51;;;;;;;0.10;0.10;;;19.30;69.80;;;;;;4980613;28;20692;-77
2023/04/13 10:05:23;;;;;;;4.80;1.48;;;19.40;68.90;;;;;;4981112;28;20105;-77
2023/04/13 10:07:50;;;;;;;0.10;0.10;;;19.40;69.40;;;;;;4963623;28;20031;-73
2023/04/13 10:10:16;;;;;;;0.10;0.10;;;19.20;70.10;;;;;;4980470;28;20026;-78
2023/04/13 10:12:48;;;;;;;8.27;7.75;;;19.00;69.90;;;;;;4980412;28;20621;-73
2023/04/13 10:15:21;;;;;;;0.10;0.10;;;19.10;70.10;;;;;;4980430;28;20072;-74
2023/04/13 10:18:08;;;;;;;0.20;0.20;;;19.10;72.10;;;;;;4980219;28;20512;-80
2023/04/13 10:20:35;;;;;;;0.10;0.10;;;19.10;71.60;;;;;;4980418;28;20360;-77
2023/04/13 10:23:04;;;;;;;0.20;0.20;;;19.00;72.00;;;;;;4980323;28;20061;-76
2023/04/13 10:25:29;;;;;;;0.10;0.10;;;18.60;74.00;;;;;;4980381;28;20011;-72
2023/04/13 10:27:59;;;;;;;0.20;0.20;;;18.70;74.10;;;;;;4980236;28;20097;-77
2023/04/13 10:30:26;;;;;;;0.10;0.10;;;18.40;76.40;;;;;;4980316;28;20022;-73
2023/04/13 10:33:04;;;;;;;0.10;0.10;;;18.30;77.50;;;;;;4980486;28;20094;-72
2023/04/13 10:35:30;;;;;;;0.47;0.47;;;18.40;77.00;;;;;;4980183;28;20576;-72
2023/04/13 10:37:56;;;;;;;0.10;0.10;;;18.20;77.40;;;;;;4979945;28;20110;-75
2023/04/13 10:40:22;;;;;;;0.10;0.10;;;18.10;78.70;;;;;;4980246;28;20022;-80
2023/04/13 10:42:48;;;;;;;0.10;0.10;;;18.20;78.50;;;;;;4979815;28;20022;-75
2023/04/13 10:45:25;;;;;;;0.10;0.10;;;18.10;79.20;;;;;;4979951;28;20029;-81
2023/04/13 10:47:52;;;;;;;0.10;0.10;;;18.10;80.80;;;;;;4980049;28;20030;-73
2023/04/13 10:50:23;;;;;;;0.10;0.10;;;18.10;81.20;;;;;;4979929;28;20022;-75
2023/04/13 10:53:04;;;;;;;0.10;0.10;;;18.20;82.10;;;;;;4979965;28;20018;-82
2023/04/13 10:55:31;;;;;;;0.10;0.10;;;18.40;82.10;;;;;;4979861;28;20674;-72
2023/04/13 10:57:59;;;;;;;0.10;0.10;;;18.70;81.10;;;;;;4979726;28;20085;-74
2023/04/13 11:00:27;;;;;;;0.10;0.10;;;19.10;80.90;;;;;;4979659;28;20018;-82
2023/04/13 11:02:58;;;;;;;0.13;0.13;;;19.00;79.80;;;;;;4979737;28;20193;-75
2023/04/13 11:05:25;;;;;;;0.10;0.10;;;19.00;79.60;;;;;;4979407;28;20025;-83
2023/04/13 11:07:52;;;;;;;0.10;0.10;;;15.40;78.20;;;;;;4980152;28;20117;-73
2023/04/13 11:10:28;;;;;;;0.10;0.10;;;19.10;78.90;;;;;;4979646;28;20084;-73
2023/04/13 11:12:56;;;;;;;0.40;0.40;;;19.20;79.70;;;;;;4979343;28;20094;-72
2023/04/13 11:15:28;;;;;;;0.10;0.10;;;19.50;78.30;;;;;;4979015;28;20018;-72
2023/04/13 11:17:58;;;;;;;0.10;0.10;;;20.00;77.50;;;;;;4961522;28;20578;-80
2023/04/13 11:20:31;;;;;;;0.10;0.10;;;20.30;74.80;;;;;;4979374;28;20050;-74
2023/04/13 11:22:57;;;;;;;0.10;0.10;;;20.50;73.50;;;;;;4979495;28;20022;-84
2023/04/13 11:25:24;;;;;;;0.10;0.10;;;20.60;73.10;;;;;;4978987;28;20123;-76
2023/04/13 11:28:02;;;;;;;0.30;0.30;;;21.00;72.00;;;;;;4979077;28;20037;-76
2023/04/13 11:30:29;;;;;;;0.13;0.13;;;21.20;70.70;;;;;;4979351;28;20531;-74
2023/04/13 11:32:58;;;;;;;0.10;0.10;;;21.10;70.40;;;;;;4979530;28;20022;-82
2023/04/13 11:35:25;;;;;;;0.10;0.10;;;21.50;69.80;;;;;;4983241;28;20035;-74
2023/04/13 11:37:53;;;;;;;0.17;0.17;;;21.70;68.40;;;;;;4982563;28;20026;-79
2023/04/13 11:40:24;;;;;;;0.52;0.52;;;21.80;67.90;;;;;;4981745;28;20029;-73
2023/04/13 11:42:55;;;;;;;0.03;0.03;;;21.90;67.30;;;;;;4983915;28;20041;-78
2023/04/13 11:45:25;;;;;;;0.10;0.10;;;22.00;67.20;;;;;;4981901;28;20025;-79
2023/04/13 11:47:52;;;;;;;0.43;0.43;;;22.00;67.80;;;;;;4979396;28;20019;-76
2023/04/13 11:50:19;;;;;;;0.52;0.52;;;21.70;67.10;;;;;;4979127;28;20029;-74
2023/04/13 11:52:46;;;;;;;0.00;0.00;;;22.10;67.00;;;;;;4978979;28;20026;-73
2023/04/13 11:55:13;;;;;;;0.10;0.10;;;22.10;66.50;;;;;;4979284;28;20771;-78
2023/04/13 11:57:40;;;;;;;0.10;0.10;;;21.80;67.30;;;;;;4978925;28;20216;-81
2023/04/13 12:00:25;;;;;;;0.22;0.22;;;21.70;67.60;;;;;;4978363;28;20026;-77
2023/04/13 12:02:56;;;;;;;0.10;0.10;;;17.20;67.30;;;;;;4978969;28;20038;-73
2023/04/13 12:05:32;;;;;;;0.30;0.30;;;20.40;71.10;;;;;;4961131;28;20081;-73
2023/04/13 12:07:58;;;;;;;0.20;0.20;;;20.20;70.70;;;;;;4978171;28;20677;-74
2023/04/13 12:10:25;;;;;;;0.10;0.10;;;20.20;71.60;;;;;;4977597;28;20018;-79
2023/04/13 12:13:07;;;;;;;0.10;0.10;;;20.00;72.80;;;;;;4979300;28;20120;-78
2023/04/13 12:15:36;;;;;;;0.10;0.10;;;19.60;73.20;;;;;;4979080;28;20019;-74
2023/04/13 12:18:03;;;;;;;0.10;0.10;;;19.40;72.90;;;;;;4978218;28;20018;-72
2023/04/13 12:20:42;;;;;;;39.72;2.83;;;19.20;75.00;;;;;;4960988;28;20053;-83
2023/04/13 12:23:21;;;;;;;0.10;0.10;;;19.10;75.30;;;;;;4978391;28;20654;-74
2023/04/13 12:26:04;;;;;;;0.10;0.10;;;19.20;75.70;;;;;;4961248;28;20018;-72
2023/04/13 12:28:35;;;;;;;0.20;0.20;;;19.00;76.40;;;;;;4978683;28;20589;-74
2023/04/13 12:31:06;;;;;;;0.10;0.10;;;19.00;77.50;;;;;;4978383;28;20022;-72
2023/04/13 12:33:33;;;;;;;0.10;0.10;;;19.20;77.30;;;;;;4960651;28;20014;-75
2023/04/13 12:35:59;;;;;;;12.25;1.65;;;19.00;76.30;;;;;;4978390;28;20033;-73
2023/04/13 12:38:26;;;;;;;0.20;0.20;;;19.10;76.20;;;;;;4977856;28;20046;-78
2023/04/13 12:40:59;;;;;;;0.98;0.98;;;19.10;76.00;;;;;;4977680;28;20022;-73
2023/04/13 12:43:25;;;;;;;0.10;0.10;;;18.90;73.80;;;;;;4978003;28;20022;-72
2023/04/13 12:45:52;;;;;;;0.55;0.55;;;18.90;73.60;;;;;;4960622;28;20516;-74
2023/04/13 12:48:18;;;;;;;0.10;0.10;;;19.00;74.10;;;;;;4978052;28;20077;-76
2023/04/13 12:50:44;;;;;;;0.10;0.10;;;19.10;74.10;;;;;;4960519;28;20117;-74
2023/04/13 12:53:13;;;;;;;0.20;0.20;;;19.20;73.10;;;;;;4960368;28;20066;-72
2023/04/13 12:55:39;;;;;;;0.10;0.10;;;19.30;72.80;;;;;;4960624;28;20027;-75
2023/04/13 12:58:05;;;;;;;0.10;0.10;;;19.30;73.40;;;;;;4977718;28;20018;-72